sensor_id;sensor_type;location;lat;lon;timestamp;pressure;altitude;pressure_sealevel;temperature;humidity
23059;BME280;30585;51.502;7.218;2023-09-08T00:01:02;100822.41;;;16.39;80.41
23059;BME280;30585;51.502;7.218;2023-09-08T00:03:32;100908.03;;;16.85;80.79
23059;BME280;30585;51.502;7.218;2023-09-08T00:06:00;100897.28;;;16.83;79.40
23059;BME280;30585;51.502;7.218;2023-09-08T00:08:27;100897.56;;;16.80;80.78
23059;BME280;30585;51.502;7.218;2023-09-08T00:10:56;100888.25;;;16.92;79.78
23059;BME280;30585;51.502;7.218;2023-09-08T00:13:24;100897.53;;;16.99;80.65
23059;BME280;30585;51.502;7.218;2023-09-08T00:15:51;100884.03;;;16.98;79.66
23059;BME280;30585;51.502;7.218;2023-09-08T00:18:19;100888.50;;;16.99;79.82
23059;BME280;30585;51.502;7.218;2023-09-08T00:20:48;100890.34;;;16.98;79.61
23059;BME280;30585;51.502;7.218;2023-09-08T00:23:16;100881.03;;;17.01;79.72
23059;BME280;30585;51.502;7.218;2023-09-08T00:25:44;100885.66;;;16.81;81.10
23059;BME280;30585;51.502;7.218;2023-09-08T00:28:11;100897.28;;;16.83;79.54
23059;BME280;30585;51.502;7.218;2023-09-08T00:30:39;100854.94;;;16.60;80.18
23059;BME280;30585;51.502;7.218;2023-09-08T00:33:07;100895.84;;;16.89;79.54
23059;BME280;30585;51.502;7.218;2023-09-08T00:35:35;100874.91;;;16.80;79.50
23059;BME280;30585;51.502;7.218;2023-09-08T00:38:04;100891.97;;;16.91;80.31
23059;BME280;30585;51.502;7.218;2023-09-08T00:40:32;100889.53;;;16.88;80.03
23059;BME280;30585;51.502;7.218;2023-09-08T00:43:00;100794.44;;;16.27;80.03
23059;BME280;30585;51.502;7.218;2023-09-08T00:45:29;100894.69;;;16.91;79.79
23059;BME280;30585;51.502;7.218;2023-09-08T00:47:58;100878.34;;;16.82;80.42
23059;BME280;30585;51.502;7.218;2023-09-08T00:50:26;100891.69;;;16.75;80.56
23059;BME280;30585;51.502;7.218;2023-09-08T00:52:53;100886.09;;;16.77;80.99
23059;BME280;30585;51.502;7.218;2023-09-08T00:55:23;100882.78;;;16.73;80.21
23059;BME280;30585;51.502;7.218;2023-09-08T00:57:50;100881.91;;;16.72;80.63
23059;BME280;30585;51.502;7.218;2023-09-08T01:00:18;100868.63;;;16.69;80.81
23059;BME280;30585;51.502;7.218;2023-09-08T01:02:46;100882.22;;;16.79;80.41
23059;BME280;30585;51.502;7.218;2023-09-08T01:05:14;100884.06;;;16.79;80.57
23059;BME280;30585;51.502;7.218;2023-09-08T01:07:44;100880.34;;;16.80;80.06
23059;BME280;30585;51.502;7.218;2023-09-08T01:10:12;100880.34;;;16.80;80.16
23059;BME280;30585;51.502;7.218;2023-09-08T01:12:42;100881.94;;;16.82;80.41
23059;BME280;30585;51.502;7.218;2023-09-08T01:15:10;100882.50;;;16.86;80.58
23059;BME280;30585;51.502;7.218;2023-09-08T01:17:38;100880.22;;;16.81;79.72
23059;BME280;30585;51.502;7.218;2023-09-08T01:20:14;100868.00;;;16.75;79.40
23059;BME280;30585;51.502;7.218;2023-09-08T01:23:00;100885.94;;;16.88;79.98
23059;BME280;30585;51.502;7.218;2023-09-08T01:25:31;100884.06;;;16.88;79.79
23059;BME280;30585;51.502;7.218;2023-09-08T01:28:00;100859.44;;;16.70;80.73
23059;BME280;30585;51.502;7.218;2023-09-08T01:30:30;100866.88;;;16.88;79.91
23059;BME280;30585;51.502;7.218;2023-09-08T01:32:59;100883.78;;;16.91;79.60
23059;BME280;30585;51.502;7.218;2023-09-08T01:35:28;100879.59;;;16.97;79.51
23059;BME280;30585;51.502;7.218;2023-09-08T01:37:55;100879.91;;;16.94;79.03
23059;BME280;30585;51.502;7.218;2023-09-08T01:40:23;100814.06;;;16.50;79.00
23059;BME280;30585;51.502;7.218;2023-09-08T01:42:53;100877.34;;;16.92;78.93
23059;BME280;30585;51.502;7.218;2023-09-08T01:45:20;100858.53;;;16.80;79.84
23059;BME280;30585;51.502;7.218;2023-09-08T01:47:48;100876.00;;;16.96;79.78
23059;BME280;30585;51.502;7.218;2023-09-08T01:50:16;100863.56;;;16.94;79.67
23059;BME280;30585;51.502;7.218;2023-09-08T01:52:48;100874.28;;;16.95;79.92
23059;BME280;30585;51.502;7.218;2023-09-08T01:55:16;100759.91;;;16.28;80.26
23059;BME280;30585;51.502;7.218;2023-09-08T01:57:44;100861.69;;;16.94;79.43
23059;BME280;30585;51.502;7.218;2023-09-08T02:00:15;100863.56;;;16.94;79.86
23059;BME280;30585;51.502;7.218;2023-09-08T02:02:42;100864.56;;;16.93;79.88
23059;BME280;30585;51.502;7.218;2023-09-08T02:05:10;100868.28;;;16.92;79.68
23059;BME280;30585;51.502;7.218;2023-09-08T02:07:38;100856.53;;;16.91;80.17
23059;BME280;30585;51.502;7.218;2023-09-08T02:10:06;100858.25;;;16.92;79.86
23059;BME280;30585;51.502;7.218;2023-09-08T02:12:34;100856.25;;;16.94;79.59
23059;BME280;30585;51.502;7.218;2023-09-08T02:15:02;100859.69;;;16.87;80.12
23059;BME280;30585;51.502;7.218;2023-09-08T02:17:32;100860.69;;;16.86;79.28
23059;BME280;30585;51.502;7.218;2023-09-08T02:19:59;100861.84;;;16.83;79.02
23059;BME280;30585;51.502;7.218;2023-09-08T02:22:27;100866.84;;;16.59;81.13
23059;BME280;30585;51.502;7.218;2023-09-08T02:24:54;100869.75;;;16.67;79.93
23059;BME280;30585;51.502;7.218;2023-09-08T02:27:24;100851.41;;;16.69;79.85
23059;BME280;30585;51.502;7.218;2023-09-08T02:29:52;100857.84;;;16.68;79.73
23059;BME280;30585;51.502;7.218;2023-09-08T02:32:20;100852.94;;;16.62;79.58
23059;BME280;30585;51.502;7.218;2023-09-08T02:34:49;100859.16;;;16.64;79.80
23059;BME280;30585;51.502;7.218;2023-09-08T02:37:17;100809.06;;;16.36;80.42
23059;BME280;30585;51.502;7.218;2023-09-08T02:39:45;100869.75;;;16.67;80.10
23059;BME280;30585;51.502;7.218;2023-09-08T02:42:13;100866.19;;;16.66;80.79
23059;BME280;30585;51.502;7.218;2023-09-08T02:44:41;100860.44;;;16.69;80.25
23059;BME280;30585;51.502;7.218;2023-09-08T02:47:09;100864.03;;;16.70;79.62
23059;BME280;30585;51.502;7.218;2023-09-08T02:49:37;100856.53;;;16.72;80.06
23059;BME280;30585;51.502;7.218;2023-09-08T02:52:06;100864.16;;;16.68;81.18
23059;BME280;30585;51.502;7.218;2023-09-08T02:54:34;100856.97;;;16.48;80.46
23059;BME280;30585;51.502;7.218;2023-09-08T02:57:02;100867.44;;;16.62;80.29
23059;BME280;30585;51.502;7.218;2023-09-08T02:59:30;100844.34;;;16.47;81.14
23059;BME280;30585;51.502;7.218;2023-09-08T03:01:59;100842.75;;;16.35;79.59
23059;BME280;30585;51.502;7.218;2023-09-08T03:04:27;100860.09;;;16.53;80.28
23059;BME280;30585;51.502;7.218;2023-09-08T03:06:55;100873.44;;;16.56;80.26
23059;BME280;30585;51.502;7.218;2023-09-08T03:09:24;100875.16;;;16.57;80.70
23059;BME280;30585;51.502;7.218;2023-09-08T03:11:52;100869.72;;;16.57;80.31
23059;BME280;30585;51.502;7.218;2023-09-08T03:14:20;100867.72;;;16.59;79.78
23059;BME280;30585;51.502;7.218;2023-09-08T03:16:47;100863.84;;;16.62;79.90
23059;BME280;30585;51.502;7.218;2023-09-08T03:19:15;100870.88;;;16.45;80.54
23059;BME280;30585;51.502;7.218;2023-09-08T03:21:43;100864.28;;;16.48;79.88
23059;BME280;30585;51.502;7.218;2023-09-08T03:24:11;100852.69;;;16.46;80.33
23059;BME280;30585;51.502;7.218;2023-09-08T03:26:40;100861.25;;;16.51;79.90
23059;BME280;30585;51.502;7.218;2023-09-08T03:29:07;100849.94;;;16.46;81.50
23059;BME280;30585;51.502;7.218;2023-09-08T03:31:35;100858.69;;;16.39;80.84
23059;BME280;30585;51.502;7.218;2023-09-08T03:34:03;100771.41;;;16.02;79.70
23059;BME280;30585;51.502;7.218;2023-09-08T03:36:31;100840.19;;;16.43;81.02
23059;BME280;30585;51.502;7.218;2023-09-08T03:39:02;100845.66;;;16.43;81.03
23059;BME280;30585;51.502;7.218;2023-09-08T03:41:30;100846.22;;;16.47;80.37
23059;BME280;30585;51.502;7.218;2023-09-08T03:43:59;100840.19;;;16.43;81.69
23059;BME280;30585;51.502;7.218;2023-09-08T03:46:27;100842.91;;;16.43;81.29
23059;BME280;30585;51.502;7.218;2023-09-08T03:48:54;100845.50;;;16.45;81.19
23059;BME280;30585;51.502;7.218;2023-09-08T03:51:27;100846.06;;;16.38;80.15
23059;BME280;30585;51.502;7.218;2023-09-08T03:53:55;100834.88;;;16.41;81.01
23059;BME280;30585;51.502;7.218;2023-09-08T03:56:23;100841.06;;;16.44;80.08
23059;BME280;30585;51.502;7.218;2023-09-08T03:58:51;100805.81;;;16.23;80.85
23059;BME280;30585;51.502;7.218;2023-09-08T04:01:20;100843.19;;;16.30;81.20
23059;BME280;30585;51.502;7.218;2023-09-08T04:03:48;100812.81;;;16.16;80.31
23059;BME280;30585;51.502;7.218;2023-09-08T04:06:16;100841.34;;;16.40;80.81
23059;BME280;30585;51.502;7.218;2023-09-08T04:08:44;100845.50;;;16.35;79.95
23059;BME280;30585;51.502;7.218;2023-09-08T04:11:11;100847.34;;;16.34;80.58
23059;BME280;30585;51.502;7.218;2023-09-08T04:13:39;100754.75;;;15.77;79.94
23059;BME280;30585;51.502;7.218;2023-09-08T04:16:07;100715.22;;;15.63;80.15
23059;BME280;30585;51.502;7.218;2023-09-08T04:18:37;100844.50;;;16.46;79.26
23059;BME280;30585;51.502;7.218;2023-09-08T04:21:06;100837.63;;;16.41;79.50
23059;BME280;30585;51.502;7.218;2023-09-08T04:23:34;100835.88;;;16.40;79.81
23059;BME280;30585;51.502;7.218;2023-09-08T04:26:02;100845.50;;;16.35;79.78
23059;BME280;30585;51.502;7.218;2023-09-08T04:28:30;100836.31;;;16.36;80.07
23059;BME280;30585;51.502;7.218;2023-09-08T04:30:57;100842.19;;;16.41;80.24
23059;BME280;30585;51.502;7.218;2023-09-08T04:33:26;100842.75;;;16.35;80.82
23059;BME280;30585;51.502;7.218;2023-09-08T04:35:56;100786.31;;;15.98;79.89
23059;BME280;30585;51.502;7.218;2023-09-08T04:38:24;100810.06;;;16.06;80.11
23059;BME280;30585;51.502;7.218;2023-09-08T04:40:52;100848.34;;;16.33;80.05
23059;BME280;30585;51.502;7.218;2023-09-08T04:43:19;100842.91;;;16.33;79.70
23059;BME280;30585;51.502;7.218;2023-09-08T04:45:47;100847.38;;;16.25;80.21
23059;BME280;30585;51.502;7.218;2023-09-08T04:48:15;100848.06;;;16.27;80.17
23059;BME280;30585;51.502;7.218;2023-09-08T04:50:43;100842.31;;;16.30;79.59
23059;BME280;30585;51.502;7.218;2023-09-08T04:53:12;100845.34;;;16.27;80.08
23059;BME280;30585;51.502;7.218;2023-09-08T04:55:39;100848.06;;;16.27;80.01
23059;BME280;30585;51.502;7.218;2023-09-08T04:58:07;100847.66;;;16.22;80.46
23059;BME280;30585;51.502;7.218;2023-09-08T05:00:37;100849.22;;;16.24;79.55
23059;BME280;30585;51.502;7.218;2023-09-08T05:03:05;100830.72;;;16.08;79.99
23059;BME280;30585;51.502;7.218;2023-09-08T05:05:33;100857.09;;;16.27;79.39
23059;BME280;30585;51.502;7.218;2023-09-08T05:08:01;100853.34;;;16.28;79.13
23059;BME280;30585;51.502;7.218;2023-09-08T05:10:30;100850.50;;;16.30;79.11
23059;BME280;30585;51.502;7.218;2023-09-08T05:12:57;100639.50;;;14.99;78.44
23059;BME280;30585;51.502;7.218;2023-09-08T05:15:25;100844.78;;;16.33;78.96
23059;BME280;30585;51.502;7.218;2023-09-08T05:17:53;100839.47;;;16.31;78.69
23059;BME280;30585;51.502;7.218;2023-09-08T05:20:21;100851.50;;;16.29;79.79
23059;BME280;30585;51.502;7.218;2023-09-08T05:22:49;100850.78;;;16.27;79.01
23059;BME280;30585;51.502;7.218;2023-09-08T05:25:16;100850.38;;;16.22;78.97
23059;BME280;30585;51.502;7.218;2023-09-08T05:27:46;100841.19;;;16.23;79.43
23059;BME280;30585;51.502;7.218;2023-09-08T05:30:15;100840.91;;;16.26;79.52
23059;BME280;30585;51.502;7.218;2023-09-08T05:32:43;100847.38;;;16.25;79.19
23059;BME280;30585;51.502;7.218;2023-09-08T05:35:11;100845.34;;;16.27;79.51
23059;BME280;30585;51.502;7.218;2023-09-08T05:37:38;100848.34;;;16.33;79.50
23059;BME280;30585;51.502;7.218;2023-09-08T05:40:07;100848.63;;;16.30;79.62
23059;BME280;30585;51.502;7.218;2023-09-08T05:42:35;100846.06;;;16.29;79.45
23059;BME280;30585;51.502;7.218;2023-09-08T05:45:05;100840.31;;;16.32;79.36
23059;BME280;30585;51.502;7.218;2023-09-08T05:47:33;100845.91;;;16.30;79.06
23059;BME280;30585;51.502;7.218;2023-09-08T05:50:02;100828.16;;;16.36;78.19
23059;BME280;30585;51.502;7.218;2023-09-08T05:52:30;100844.47;;;16.55;78.60
23059;BME280;30585;51.502;7.218;2023-09-08T05:54:59;100828.72;;;16.49;78.59
23059;BME280;30585;51.502;7.218;2023-09-08T05:57:29;100843.38;;;16.67;78.02
23059;BME280;30585;51.502;7.218;2023-09-08T05:59:57;100854.25;;;16.77;77.86
23059;BME280;30585;51.502;7.218;2023-09-08T06:02:26;100854.25;;;16.87;78.18
23059;BME280;30585;51.502;7.218;2023-09-08T06:04:54;100846.50;;;16.92;77.65
23059;BME280;30585;51.502;7.218;2023-09-08T06:07:22;100848.16;;;17.02;77.71
23059;BME280;30585;51.502;7.218;2023-09-08T06:09:50;100835.53;;;17.11;77.13
23059;BME280;30585;51.502;7.218;2023-09-08T06:12:18;100849.59;;;17.16;76.68
23059;BME280;30585;51.502;7.218;2023-09-08T06:14:46;100846.50;;;17.38;76.26
23059;BME280;30585;51.502;7.218;2023-09-08T06:17:14;100846.41;;;17.58;75.88
23059;BME280;30585;51.502;7.218;2023-09-08T06:19:43;100844.31;;;17.79;76.41
23059;BME280;30585;51.502;7.218;2023-09-08T06:22:11;100842.63;;;17.96;74.98
23059;BME280;30585;51.502;7.218;2023-09-08T06:24:39;100849.66;;;18.16;74.39
23059;BME280;30585;51.502;7.218;2023-09-08T06:27:06;100846.06;;;18.33;73.57
23059;BME280;30585;51.502;7.218;2023-09-08T06:29:34;100853.44;;;18.51;73.62
23059;BME280;30585;51.502;7.218;2023-09-08T06:32:02;100849.44;;;18.63;73.68
23059;BME280;30585;51.502;7.218;2023-09-08T06:34:30;100855.75;;;18.81;71.95
23059;BME280;30585;51.502;7.218;2023-09-08T06:37:00;100863.59;;;19.02;70.58
23059;BME280;30585;51.502;7.218;2023-09-08T06:39:27;100859.44;;;19.16;71.60
23059;BME280;30585;51.502;7.218;2023-09-08T06:41:55;100858.03;;;19.37;72.38
23059;BME280;30585;51.502;7.218;2023-09-08T06:44:23;100862.75;;;19.53;71.16
23059;BME280;30585;51.502;7.218;2023-09-08T06:46:51;100886.28;;;19.72;69.52
23059;BME280;30585;51.502;7.218;2023-09-08T06:49:19;100874.19;;;19.91;68.89
23059;BME280;30585;51.502;7.218;2023-09-08T06:51:46;100861.78;;;20.04;68.93
23059;BME280;30585;51.502;7.218;2023-09-08T06:54:16;100860.41;;;20.17;68.38
23059;BME280;30585;51.502;7.218;2023-09-08T06:56:45;100870.53;;;20.16;65.78
23059;BME280;30585;51.502;7.218;2023-09-08T06:59:12;100768.25;;;19.83;65.77
23059;BME280;30585;51.502;7.218;2023-09-08T07:01:40;100867.72;;;20.66;67.80
23059;BME280;30585;51.502;7.218;2023-09-08T07:04:08;100859.84;;;20.71;64.80
23059;BME280;30585;51.502;7.218;2023-09-08T07:06:37;100714.16;;;20.01;63.21
23059;BME280;30585;51.502;7.218;2023-09-08T07:09:09;100827.44;;;20.67;64.24
23059;BME280;30585;51.502;7.218;2023-09-08T07:11:38;100869.44;;;21.00;61.66
23059;BME280;30585;51.502;7.218;2023-09-08T07:14:06;100873.00;;;21.16;63.49
23059;BME280;30585;51.502;7.218;2023-09-08T07:16:34;100791.41;;;20.86;63.38
23059;BME280;30585;51.502;7.218;2023-09-08T07:19:03;100874.84;;;21.57;61.74
23059;BME280;30585;51.502;7.218;2023-09-08T07:21:31;100869.25;;;21.81;62.40
23059;BME280;30585;51.502;7.218;2023-09-08T07:23:58;100862.47;;;22.00;61.12
23059;BME280;30585;51.502;7.218;2023-09-08T07:26:27;100865.22;;;22.08;60.84
23059;BME280;30585;51.502;7.218;2023-09-08T07:28:56;100868.72;;;22.25;60.92
23059;BME280;30585;51.502;7.218;2023-09-08T07:31:24;100865.44;;;22.29;59.30
23059;BME280;30585;51.502;7.218;2023-09-08T07:33:52;100878.50;;;22.27;59.51
23059;BME280;30585;51.502;7.218;2023-09-08T07:36:19;100867.75;;;22.40;60.41
23059;BME280;30585;51.502;7.218;2023-09-08T07:38:47;100877.03;;;22.62;61.77
23059;BME280;30585;51.502;7.218;2023-09-08T07:41:15;100849.06;;;22.59;59.73
23059;BME280;30585;51.502;7.218;2023-09-08T07:43:43;100861.59;;;22.84;58.29
23059;BME280;30585;51.502;7.218;2023-09-08T07:46:13;100875.06;;;23.16;61.59
23059;BME280;30585;51.502;7.218;2023-09-08T07:48:41;100880.47;;;23.10;60.38
23059;BME280;30585;51.502;7.218;2023-09-08T07:51:09;100879.75;;;23.45;60.20
23059;BME280;30585;51.502;7.218;2023-09-08T07:53:37;100878.56;;;23.63;61.39
23059;BME280;30585;51.502;7.218;2023-09-08T07:56:05;100887.97;;;23.83;59.94
23059;BME280;30585;51.502;7.218;2023-09-08T07:58:33;100885.38;;;24.11;58.67
23059;BME280;30585;51.502;7.218;2023-09-08T08:01:01;100847.66;;;23.82;58.39
23059;BME280;30585;51.502;7.218;2023-09-08T08:03:30;100881.94;;;24.09;57.31
23059;BME280;30585;51.502;7.218;2023-09-08T08:05:58;100880.13;;;24.01;55.90
23059;BME280;30585;51.502;7.218;2023-09-08T08:08:26;100882.94;;;24.23;56.03
23059;BME280;30585;51.502;7.218;2023-09-08T08:10:54;100887.25;;;24.61;54.74
23059;BME280;30585;51.502;7.218;2023-09-08T08:13:22;100888.09;;;24.83;56.66
23059;BME280;30585;51.502;7.218;2023-09-08T08:15:49;100878.31;;;25.02;56.27
23059;BME280;30585;51.502;7.218;2023-09-08T08:18:17;100878.69;;;24.77;53.24
23059;BME280;30585;51.502;7.218;2023-09-08T08:20:47;100881.28;;;25.00;53.10
23059;BME280;30585;51.502;7.218;2023-09-08T08:23:15;100876.56;;;25.22;53.31
23059;BME280;30585;51.502;7.218;2023-09-08T08:25:42;100883.44;;;25.33;53.14
23059;BME280;30585;51.502;7.218;2023-09-08T08:28:10;100882.00;;;25.65;52.91
23059;BME280;30585;51.502;7.218;2023-09-08T08:30:38;100884.88;;;25.56;54.32
23059;BME280;30585;51.502;7.218;2023-09-08T08:33:06;100881.69;;;25.87;51.57
23059;BME280;30585;51.502;7.218;2023-09-08T08:35:34;100884.72;;;25.99;53.91
23059;BME280;30585;51.502;7.218;2023-09-08T08:38:03;100875.88;;;26.17;53.85
23059;BME280;30585;51.502;7.218;2023-09-08T08:40:31;100880.63;;;26.30;52.07
23059;BME280;30585;51.502;7.218;2023-09-08T08:43:00;100880.94;;;26.61;51.47
23059;BME280;30585;51.502;7.218;2023-09-08T08:45:31;100882.69;;;26.82;52.29
23059;BME280;30585;51.502;7.218;2023-09-08T08:48:00;100872.88;;;26.79;50.86
23059;BME280;30585;51.502;7.218;2023-09-08T08:50:29;100884.44;;;27.09;50.03
23059;BME280;30585;51.502;7.218;2023-09-08T08:52:58;100879.28;;;27.13;50.55
23059;BME280;30585;51.502;7.218;2023-09-08T08:55:29;100878.03;;;27.29;50.49
23059;BME280;30585;51.502;7.218;2023-09-08T08:58:01;100886.94;;;27.64;50.56
23059;BME280;30585;51.502;7.218;2023-09-08T09:00:30;100872.59;;;27.80;49.26
23059;BME280;30585;51.502;7.218;2023-09-08T09:03:01;100699.25;;;27.00;50.12
23059;BME280;30585;51.502;7.218;2023-09-08T09:05:41;100875.63;;;27.72;48.42
23059;BME280;30585;51.502;7.218;2023-09-08T09:08:14;100870.97;;;27.59;49.14
23059;BME280;30585;51.502;7.218;2023-09-08T09:10:44;100879.34;;;28.04;48.55
23059;BME280;30585;51.502;7.218;2023-09-08T09:13:11;100821.00;;;27.79;48.85
23059;BME280;30585;51.502;7.218;2023-09-08T09:15:39;100802.63;;;27.84;48.08
23059;BME280;30585;51.502;7.218;2023-09-08T09:18:07;100875.25;;;28.19;46.17
23059;BME280;30585;51.502;7.218;2023-09-08T09:20:35;100879.13;;;28.56;48.83
23059;BME280;30585;51.502;7.218;2023-09-08T09:23:03;100876.16;;;28.89;47.46
23059;BME280;30585;51.502;7.218;2023-09-08T09:25:31;100877.50;;;28.80;49.69
23059;BME280;30585;51.502;7.218;2023-09-08T09:28:02;100875.75;;;28.79;46.11
23059;BME280;30585;51.502;7.218;2023-09-08T09:30:46;100790.50;;;27.79;48.07
23059;BME280;30585;51.502;7.218;2023-09-08T09:33:15;100878.72;;;28.53;44.50
23059;BME280;30585;51.502;7.218;2023-09-08T09:35:45;100858.69;;;28.76;46.74
23059;BME280;30585;51.502;7.218;2023-09-08T09:38:14;100869.47;;;29.22;44.71
23059;BME280;30585;51.502;7.218;2023-09-08T09:40:42;100861.56;;;29.19;47.49
23059;BME280;30585;51.502;7.218;2023-09-08T09:43:11;100855.13;;;29.25;43.71
23059;BME280;30585;51.502;7.218;2023-09-08T09:45:40;100869.59;;;29.09;44.25
23059;BME280;30585;51.502;7.218;2023-09-08T09:48:09;100865.47;;;29.61;44.95
23059;BME280;30585;51.502;7.218;2023-09-08T09:50:40;100867.25;;;29.74;43.35
23059;BME280;30585;51.502;7.218;2023-09-08T09:53:10;100863.63;;;29.30;43.96
23059;BME280;30585;51.502;7.218;2023-09-08T09:55:39;100873.50;;;29.69;42.64
23059;BME280;30585;51.502;7.218;2023-09-08T09:58:08;100864.63;;;29.60;43.21
23059;BME280;30585;51.502;7.218;2023-09-08T10:00:39;100864.66;;;29.79;41.69
23059;BME280;30585;51.502;7.218;2023-09-08T10:03:07;100864.25;;;29.93;41.75
23059;BME280;30585;51.502;7.218;2023-09-08T10:05:36;100865.16;;;29.69;40.25
23059;BME280;30585;51.502;7.218;2023-09-08T10:08:05;100859.91;;;29.61;40.69
23059;BME280;30585;51.502;7.218;2023-09-08T10:10:33;100859.59;;;29.87;42.14
23059;BME280;30585;51.502;7.218;2023-09-08T10:13:03;100871.25;;;30.03;42.17
23059;BME280;30585;51.502;7.218;2023-09-08T10:15:33;100868.06;;;29.81;38.70
23059;BME280;30585;51.502;7.218;2023-09-08T10:18:04;100868.56;;;29.89;39.29
23059;BME280;30585;51.502;7.218;2023-09-08T10:20:33;100864.72;;;29.90;38.46
23059;BME280;30585;51.502;7.218;2023-09-08T10:23:06;100872.59;;;29.75;36.76
23059;BME280;30585;51.502;7.218;2023-09-08T10:25:39;100825.22;;;29.82;37.56
23059;BME280;30585;51.502;7.218;2023-09-08T10:28:10;100867.41;;;29.97;38.30
23059;BME280;30585;51.502;7.218;2023-09-08T10:30:38;100860.97;;;30.03;37.95
23059;BME280;30585;51.502;7.218;2023-09-08T10:33:08;100865.84;;;30.38;37.34
23059;BME280;30585;51.502;7.218;2023-09-08T10:35:37;100814.38;;;29.92;39.16
23059;BME280;30585;51.502;7.218;2023-09-08T10:38:24;100863.72;;;30.21;37.85
23059;BME280;30585;51.502;7.218;2023-09-08T10:40:53;100862.66;;;30.04;39.68
23059;BME280;30585;51.502;7.218;2023-09-08T10:43:21;100863.75;;;30.33;38.22
23059;BME280;30585;51.502;7.218;2023-09-08T10:45:48;100859.00;;;30.22;37.49
23059;BME280;30585;51.502;7.218;2023-09-08T10:48:19;100859.16;;;30.27;40.08
23059;BME280;30585;51.502;7.218;2023-09-08T10:50:47;100861.19;;;30.32;38.20
23059;BME280;30585;51.502;7.218;2023-09-08T10:53:16;100857.75;;;30.18;36.42
23059;BME280;30585;51.502;7.218;2023-09-08T10:55:45;100864.44;;;30.47;38.80
23059;BME280;30585;51.502;7.218;2023-09-08T10:58:35;100854.38;;;30.76;38.09
23059;BME280;30585;51.502;7.218;2023-09-08T11:01:05;100849.00;;;30.63;36.92
23059;BME280;30585;51.502;7.218;2023-09-08T11:03:45;100858.91;;;31.00;40.04
23059;BME280;30585;51.502;7.218;2023-09-08T11:06:16;100861.84;;;30.64;36.91
23059;BME280;30585;51.502;7.218;2023-09-08T11:08:45;100860.72;;;31.06;38.14
23059;BME280;30585;51.502;7.218;2023-09-08T11:11:15;100854.97;;;31.43;38.02
23059;BME280;30585;51.502;7.218;2023-09-08T11:13:44;100855.94;;;31.48;38.24
23059;BME280;30585;51.502;7.218;2023-09-08T11:16:13;100866.22;;;31.24;36.12
23059;BME280;30585;51.502;7.218;2023-09-08T11:18:41;100870.19;;;30.93;38.26
23059;BME280;30585;51.502;7.218;2023-09-08T11:21:11;100888.06;;;31.27;38.95
23059;BME280;30585;51.502;7.218;2023-09-08T11:23:39;100865.59;;;31.11;36.02
23059;BME280;30585;51.502;7.218;2023-09-08T11:26:07;100859.38;;;30.97;39.32
23059;BME280;30585;51.502;7.218;2023-09-08T11:28:36;100856.03;;;30.65;39.33
23059;BME280;30585;51.502;7.218;2023-09-08T11:31:04;100853.09;;;31.02;37.29
23059;BME280;30585;51.502;7.218;2023-09-08T11:33:34;100856.03;;;31.42;36.81
23059;BME280;30585;51.502;7.218;2023-09-08T11:36:13;100859.22;;;31.57;39.18
23059;BME280;30585;51.502;7.218;2023-09-08T11:38:43;100857.13;;;31.64;37.17
23059;BME280;30585;51.502;7.218;2023-09-08T11:41:12;100860.03;;;31.92;35.08
23059;BME280;30585;51.502;7.218;2023-09-08T11:43:40;100855.69;;;31.50;34.89
23059;BME280;30585;51.502;7.218;2023-09-08T11:46:08;100852.31;;;31.36;36.29
23059;BME280;30585;51.502;7.218;2023-09-08T11:48:37;100838.94;;;31.61;35.77
23059;BME280;30585;51.502;7.218;2023-09-08T11:51:06;100840.94;;;30.96;36.32
23059;BME280;30585;51.502;7.218;2023-09-08T11:53:37;100845.72;;;31.19;37.64
23059;BME280;30585;51.502;7.218;2023-09-08T11:56:05;100848.53;;;31.77;38.14
23059;BME280;30585;51.502;7.218;2023-09-08T11:58:33;100760.88;;;30.91;33.23
23059;BME280;30585;51.502;7.218;2023-09-08T12:01:03;100830.72;;;31.67;36.23
23059;BME280;30585;51.502;7.218;2023-09-08T12:03:31;100840.81;;;32.08;35.50
23059;BME280;30585;51.502;7.218;2023-09-08T12:05:59;100826.94;;;32.24;36.66
23059;BME280;30585;51.502;7.218;2023-09-08T12:08:29;100846.06;;;32.33;34.52
23059;BME280;30585;51.502;7.218;2023-09-08T12:10:58;100839.28;;;31.88;35.75
23059;BME280;30585;51.502;7.218;2023-09-08T12:13:26;100707.28;;;31.24;31.94
23059;BME280;30585;51.502;7.218;2023-09-08T12:15:54;100708.38;;;31.23;35.39
23059;BME280;30585;51.502;7.218;2023-09-08T12:18:37;100833.72;;;31.42;33.51
23059;BME280;30585;51.502;7.218;2023-09-08T12:21:05;100842.72;;;31.67;33.43
23059;BME280;30585;51.502;7.218;2023-09-08T12:23:33;100838.22;;;31.43;34.83
23059;BME280;30585;51.502;7.218;2023-09-08T12:26:02;100842.78;;;32.07;35.09
23059;BME280;30585;51.502;7.218;2023-09-08T12:28:30;100833.53;;;32.47;36.65
23059;BME280;30585;51.502;7.218;2023-09-08T12:30:58;100825.00;;;31.61;34.94
23059;BME280;30585;51.502;7.218;2023-09-08T12:33:26;100729.66;;;31.53;38.57
23059;BME280;30585;51.502;7.218;2023-09-08T12:35:54;100823.81;;;32.66;36.22
23059;BME280;30585;51.502;7.218;2023-09-08T12:38:22;100720.66;;;31.74;33.65
23059;BME280;30585;51.502;7.218;2023-09-08T12:40:50;100827.19;;;32.51;32.97
23059;BME280;30585;51.502;7.218;2023-09-08T12:43:19;100839.28;;;32.85;35.00
23059;BME280;30585;51.502;7.218;2023-09-08T12:45:53;100759.66;;;32.88;32.04
23059;BME280;30585;51.502;7.218;2023-09-08T12:48:23;100720.25;;;32.89;33.97
23059;BME280;30585;51.502;7.218;2023-09-08T12:50:51;100819.34;;;33.49;32.30
23059;BME280;30585;51.502;7.218;2023-09-08T12:53:19;100822.38;;;33.64;33.57
23059;BME280;30585;51.502;7.218;2023-09-08T12:55:47;100819.66;;;33.52;32.87
23059;BME280;30585;51.502;7.218;2023-09-08T12:58:15;100816.44;;;33.60;34.16